Time;durP1;ratioP1;P1;durP2;ratioP2;P2;SDS_P1;SDS_P2;PMS_P1;PMS_P2;Temp;Humidity;BMP_temperature;BMP_pressure;BME280_temperature;BME280_humidity;BME280_pressure;Samples;Min_cycle;Max_cycle;Signal;HPM_P1;HPM_P2
2022/11/08 00:03:25;;;;;;;;;;;20.80;55.20;;;;;;5024587;28;20376;-73
2022/11/08 00:14:05;;;;;;;;;;;20.70;55.30;;;;;;5024904;28;20030;-72
2022/11/08 00:16:31;;;;;;;;;;;20.70;55.40;;;;;;5022200;28;20000;-72
2022/11/08 00:18:56;;;;;;;;;;;20.70;55.50;;;;;;5025376;28;19921;-73
2022/11/08 00:21:22;;;;;;;;;;;20.70;55.40;;;;;;5024221;28;19913;-73
2022/11/08 00:23:47;;;;;;;;;;;20.70;55.40;;;;;;5026400;28;19913;-73
2022/11/08 00:26:12;;;;;;;;;;;20.70;55.60;;;;;;5024799;28;19979;-73
2022/11/08 00:28:38;;;;;;;;;;;20.70;55.60;;;;;;5024636;28;20292;-73
2022/11/08 00:31:04;;;;;;;;;;;20.70;55.60;;;;;;5025036;28;20002;-73
2022/11/08 00:33:30;;;;;;;;;;;20.70;55.60;;;;;;5025128;28;20036;-73
2022/11/08 00:35:58;;;;;;;;;;;20.70;55.60;;;;;;5031109;28;20011;-73
2022/11/08 00:38:24;;;;;;;;;;;20.70;55.60;;;;;;5027939;28;19921;-73
2022/11/08 00:40:49;;;;;;;;;;;20.70;55.60;;;;;;5027422;28;23795;-72
2022/11/08 00:43:15;;;;;;;;;;;20.60;55.50;;;;;;5044544;28;19913;-72
2022/11/08 00:45:40;;;;;;;;;;;20.70;55.60;;;;;;5030869;28;19920;-73
2022/11/08 00:48:05;;;;;;;;;;;20.70;55.60;;;;;;5045309;28;20233;-73
2022/11/08 00:50:31;;;;;;;;;;;20.60;55.50;;;;;;5043588;28;20351;-73
2022/11/08 00:52:56;;;;;;;;;;;20.60;55.50;;;;;;5044822;28;19921;-73
2022/11/08 00:55:22;;;;;;;;;;;20.60;55.50;;;;;;5025431;28;19920;-72
2022/11/08 00:57:47;;;;;;;;;;;20.60;55.50;;;;;;5029669;28;19919;-72
2022/11/08 01:00:13;;;;;;;;;;;20.60;55.50;;;;;;5044908;28;19920;-72
2022/11/08 01:02:38;;;;;;;;;;;20.60;55.50;;;;;;5044900;28;19924;-73
2022/11/08 01:05:04;;;;;;;;;;;20.60;55.50;;;;;;5027020;28;19974;-72
2022/11/08 01:07:29;;;;;;;;;;;20.60;55.50;;;;;;5042304;28;19924;-73
2022/11/08 01:09:55;;;;;;;;;;;20.60;55.50;;;;;;5046020;28;19912;-73
2022/11/08 01:12:20;;;;;;;;;;;20.50;55.40;;;;;;5045045;28;19913;-73
2022/11/08 01:14:46;;;;;;;;;;;20.50;55.50;;;;;;5042018;28;20257;-73
2022/11/08 01:17:11;;;;;;;;;;;20.50;55.50;;;;;;5044759;28;20491;-73
2022/11/08 01:19:36;;;;;;;;;;;20.50;55.50;;;;;;5041945;28;19913;-73
2022/11/08 01:22:02;;;;;;;;;;;20.50;55.50;;;;;;5027851;28;19963;-73
2022/11/08 01:24:27;;;;;;;;;;;20.50;55.40;;;;;;5044366;28;19924;-73
2022/11/08 01:26:53;;;;;;;;;;;20.50;55.60;;;;;;5045102;28;20404;-71
2022/11/08 01:29:18;;;;;;;;;;;20.50;55.40;;;;;;5043472;28;20075;-73
2022/11/08 01:31:43;;;;;;;;;;;20.50;55.40;;;;;;5044289;28;19924;-72
2022/11/08 01:34:09;;;;;;;;;;;20.50;55.40;;;;;;5007367;28;19920;-72
2022/11/08 01:36:34;;;;;;;;;;;20.50;55.60;;;;;;5012941;28;19917;-72
2022/11/08 01:39:00;;;;;;;;;;;20.40;55.80;;;;;;5028533;28;19944;-73
2022/11/08 01:41:25;;;;;;;;;;;20.40;55.70;;;;;;5028948;28;20641;-72
2022/11/08 01:43:55;;;;;;;;;;;20.40;55.70;;;;;;5027083;28;19917;-73
2022/11/08 01:46:26;;;;;;;;;;;20.40;55.60;;;;;;5022568;28;19921;-72
2022/11/08 01:48:58;;;;;;;;;;;20.40;55.50;;;;;;5043407;28;19916;-73
2022/11/08 01:51:24;;;;;;;;;;;20.40;55.60;;;;;;5040678;28;19919;-74
2022/11/08 01:53:50;;;;;;;;;;;20.40;56.30;;;;;;5044419;28;19920;-72
2022/11/08 01:56:15;;;;;;;;;;;20.40;55.60;;;;;;5044004;28;19913;-72
2022/11/08 01:58:41;;;;;;;;;;;20.40;55.70;;;;;;5041959;28;19917;-72
2022/11/08 02:01:06;;;;;;;;;;;20.40;55.50;;;;;;5028959;28;19920;-73
2022/11/08 02:03:32;;;;;;;;;;;20.40;55.40;;;;;;5045336;28;19913;-72
2022/11/08 02:05:57;;;;;;;;;;;20.40;55.40;;;;;;5044454;28;19917;-73
2022/11/08 02:08:23;;;;;;;;;;;20.40;55.30;;;;;;5030243;28;19924;-73
2022/11/08 02:10:49;;;;;;;;;;;20.40;55.40;;;;;;5048800;28;20368;-72
2022/11/08 02:13:15;;;;;;;;;;;20.40;55.40;;;;;;5011191;28;19912;-72
2022/11/08 02:15:41;;;;;;;;;;;20.40;55.50;;;;;;5012934;28;20419;-73
2022/11/08 02:18:07;;;;;;;;;;;20.30;55.50;;;;;;5032358;28;20031;-73
2022/11/08 02:20:32;;;;;;;;;;;20.30;55.70;;;;;;5030743;28;19968;-73
2022/11/08 02:23:01;;;;;;;;;;;20.30;55.80;;;;;;5030986;28;20067;-73
2022/11/08 02:25:26;;;;;;;;;;;20.20;55.90;;;;;;5030994;28;19921;-71
2022/11/08 02:27:52;;;;;;;;;;;20.20;56.00;;;;;;5024890;28;19913;-72
2022/11/08 02:30:17;;;;;;;;;;;20.10;56.00;;;;;;5048258;28;19913;-72
2022/11/08 02:32:43;;;;;;;;;;;20.10;56.20;;;;;;5029466;28;19956;-73
2022/11/08 02:35:10;;;;;;;;;;;20.10;56.20;;;;;;5044783;28;19917;-71
2022/11/08 02:37:35;;;;;;;;;;;20.10;56.20;;;;;;5028092;28;19917;-73
2022/11/08 02:40:01;;;;;;;;;;;20.10;56.30;;;;;;5048453;28;19913;-72
2022/11/08 02:42:26;;;;;;;;;;;20.00;56.20;;;;;;5027831;28;19988;-72
2022/11/08 02:44:52;;;;;;;;;;;20.00;56.30;;;;;;5044711;28;19921;-73
2022/11/08 02:47:17;;;;;;;;;;;20.00;56.30;;;;;;5028979;28;19940;-72
2022/11/08 02:49:42;;;;;;;;;;;20.00;56.40;;;;;;5046656;28;19923;-72
2022/11/08 02:52:08;;;;;;;;;;;20.00;56.40;;;;;;5047397;28;19959;-73
2022/11/08 02:54:33;;;;;;;;;;;20.00;56.40;;;;;;5031956;28;19917;-74
2022/11/08 02:56:59;;;;;;;;;;;20.00;56.40;;;;;;5030367;28;20040;-73
2022/11/08 02:59:24;;;;;;;;;;;20.00;56.40;;;;;;5029813;28;19917;-73
2022/11/08 03:01:50;;;;;;;;;;;20.00;56.40;;;;;;5030376;28;19919;-72
2022/11/08 03:04:15;;;;;;;;;;;20.00;56.40;;;;;;5012998;28;19912;-73
2022/11/08 03:06:41;;;;;;;;;;;20.00;56.40;;;;;;5047566;28;19963;-73
2022/11/08 03:09:06;;;;;;;;;;;20.00;56.20;;;;;;5030393;28;19982;-73
2022/11/08 03:11:31;;;;;;;;;;;20.10;56.10;;;;;;5045589;28;19921;-73
2022/11/08 03:13:57;;;;;;;;;;;20.10;55.90;;;;;;5028864;28;19919;-73
2022/11/08 03:16:22;;;;;;;;;;;20.20;55.80;;;;;;5044261;28;19927;-72
2022/11/08 03:18:48;;;;;;;;;;;20.30;55.70;;;;;;5027150;28;19916;-73
2022/11/08 03:21:13;;;;;;;;;;;20.30;55.50;;;;;;5047172;28;19967;-73
2022/11/08 03:23:39;;;;;;;;;;;20.40;55.40;;;;;;5046791;28;19917;-73
2022/11/08 03:26:04;;;;;;;;;;;20.40;55.30;;;;;;5046231;28;20359;-73
2022/11/08 03:28:30;;;;;;;;;;;20.40;55.40;;;;;;5026735;28;20369;-73
2022/11/08 03:30:55;;;;;;;;;;;20.40;56.00;;;;;;5046052;28;20355;-73
2022/11/08 03:33:21;;;;;;;;;;;20.40;55.40;;;;;;5045290;28;19921;-72
2022/11/08 03:35:47;;;;;;;;;;;20.50;55.30;;;;;;5042695;28;19924;-73
2022/11/08 03:38:12;;;;;;;;;;;20.50;55.20;;;;;;5042852;28;19920;-72
2022/11/08 03:40:38;;;;;;;;;;;20.50;55.10;;;;;;5030627;28;19917;-72
2022/11/08 03:43:03;;;;;;;;;;;20.50;55.10;;;;;;5027481;28;20392;-73
2022/11/08 03:45:29;;;;;;;;;;;20.50;55.20;;;;;;5027804;28;19921;-72
2022/11/08 03:47:54;;;;;;;;;;;20.50;55.20;;;;;;5029128;28;20484;-72
2022/11/08 03:50:20;;;;;;;;;;;20.40;55.00;;;;;;5044629;28;20253;-73
2022/11/08 03:52:49;;;;;;;;;;;20.50;55.10;;;;;;5046077;28;20400;-73
2022/11/08 03:55:16;;;;;;;;;;;20.50;55.10;;;;;;5030828;28;19921;-73
2022/11/08 03:57:41;;;;;;;;;;;20.40;55.00;;;;;;5046581;28;19916;-73
2022/11/08 04:00:08;;;;;;;;;;;20.40;55.10;;;;;;5026586;28;19920;-73
2022/11/08 04:02:33;;;;;;;;;;;20.40;55.10;;;;;;5028462;28;19924;-72
2022/11/08 04:04:58;;;;;;;;;;;20.40;55.10;;;;;;5045146;28;19921;-73
2022/11/08 04:07:24;;;;;;;;;;;20.40;55.00;;;;;;5021054;28;19921;-73
2022/11/08 04:09:49;;;;;;;;;;;20.40;55.00;;;;;;5029420;28;19912;-72
2022/11/08 04:15:14;;;;;;;;;;;20.40;55.10;;;;;;5044641;28;20019;-72
2022/11/08 04:23:11;;;;;;;;;;;20.40;54.90;;;;;;5028321;28;19928;-72
2022/11/08 04:25:37;;;;;;;;;;;20.40;54.90;;;;;;5044023;28;20291;-72
2022/11/08 04:28:02;;;;;;;;;;;20.40;54.80;;;;;;5029344;28;19913;-74
2022/11/08 04:30:28;;;;;;;;;;;20.40;54.80;;;;;;5026217;28;19924;-72
2022/11/08 04:32:53;;;;;;;;;;;20.40;54.90;;;;;;5027766;28;20012;-73
2022/11/08 04:35:19;;;;;;;;;;;20.40;54.80;;;;;;5045090;28;20327;-73
2022/11/08 04:37:44;;;;;;;;;;;20.40;54.90;;;;;;5021019;28;19917;-73
2022/11/08 04:40:10;;;;;;;;;;;20.40;54.90;;;;;;5042561;28;20006;-72
2022/11/08 04:42:35;;;;;;;;;;;20.40;54.80;;;;;;5045007;28;19958;-73
2022/11/08 04:45:01;;;;;;;;;;;20.40;54.80;;;;;;5024283;28;19931;-73
2022/11/08 04:47:26;;;;;;;;;;;20.40;54.80;;;;;;5028535;28;20012;-73
2022/11/08 04:49:53;;;;;;;;;;;20.40;54.80;;;;;;5022907;28;20605;-72
2022/11/08 04:52:18;;;;;;;;;;;20.40;54.80;;;;;;5042796;28;19917;-73
2022/11/08 04:54:44;;;;;;;;;;;20.40;54.80;;;;;;5009133;28;19928;-72
2022/11/08 04:57:10;;;;;;;;;;;20.40;54.80;;;;;;5042757;28;19921;-73
2022/11/08 04:59:35;;;;;;;;;;;20.40;54.90;;;;;;5042930;28;19959;-73
2022/11/08 05:02:01;;;;;;;;;;;20.40;54.90;;;;;;5044078;28;20000;-73
2022/11/08 05:04:26;;;;;;;;;;;20.40;55.00;;;;;;5043466;28;19920;-73
2022/11/08 05:06:52;;;;;;;;;;;20.30;54.90;;;;;;5043768;28;19917;-72
2022/11/08 05:09:17;;;;;;;;;;;20.30;55.00;;;;;;5024604;28;20010;-72
2022/11/08 05:11:43;;;;;;;;;;;20.30;55.00;;;;;;5028205;28;19993;-72
2022/11/08 05:14:08;;;;;;;;;;;20.30;55.10;;;;;;5043001;28;19916;-73
2022/11/08 05:16:33;;;;;;;;;;;20.30;55.10;;;;;;5045139;28;19928;-73
2022/11/08 05:18:59;;;;;;;;;;;20.30;55.10;;;;;;5022950;28;19913;-74
2022/11/08 05:24:10;;;;;;;;;;;20.30;55.10;;;;;;5030071;28;19971;-73
2022/11/08 05:26:35;;;;;;;;;;;20.30;55.10;;;;;;5028212;28;19978;-74
2022/11/08 05:29:01;;;;;;;;;;;20.30;55.00;;;;;;5025807;28;20264;-73
2022/11/08 05:31:26;;;;;;;;;;;20.30;55.00;;;;;;5042034;28;20329;-72
2022/11/08 05:33:52;;;;;;;;;;;20.30;55.00;;;;;;5043388;28;19913;-73
2022/11/08 05:36:17;;;;;;;;;;;20.30;55.00;;;;;;5041261;28;19917;-73
2022/11/08 05:38:43;;;;;;;;;;;20.30;55.10;;;;;;5013211;28;19931;-73
2022/11/08 05:41:11;;;;;;;;;;;20.30;55.10;;;;;;5044235;28;19924;-72
2022/11/08 05:43:37;;;;;;;;;;;20.20;55.00;;;;;;5045030;28;19944;-72
2022/11/08 05:46:02;;;;;;;;;;;20.30;55.10;;;;;;5014366;28;20054;-72
2022/11/08 05:48:27;;;;;;;;;;;20.20;54.90;;;;;;5047445;28;20370;-73
2022/11/08 05:50:53;;;;;;;;;;;20.30;55.00;;;;;;5048019;28;19924;-73
2022/11/08 05:53:18;;;;;;;;;;;20.20;54.90;;;;;;5048615;28;19917;-73
2022/11/08 05:55:44;;;;;;;;;;;20.20;54.90;;;;;;5048810;28;19924;-72
2022/11/08 05:58:09;;;;;;;;;;;20.20;54.80;;;;;;5023823;28;19913;-72
2022/11/08 06:00:35;;;;;;;;;;;20.20;54.90;;;;;;5045867;28;20051;-73
2022/11/08 06:03:01;;;;;;;;;;;20.20;54.90;;;;;;5047682;28;19924;-72
2022/11/08 06:05:26;;;;;;;;;;;20.30;55.00;;;;;;5046657;28;19923;-72
2022/11/08 06:07:52;;;;;;;;;;;20.30;54.90;;;;;;5032507;28;19995;-73
2022/11/08 06:10:18;;;;;;;;;;;20.30;54.90;;;;;;5031936;28;19920;-73
2022/11/08 06:12:43;;;;;;;;;;;20.30;54.90;;;;;;5033374;28;20388;-73
2022/11/08 06:15:08;;;;;;;;;;;20.20;54.80;;;;;;5030662;28;20380;-73
2022/11/08 06:17:34;;;;;;;;;;;20.20;54.80;;;;;;5047699;28;20296;-71
2022/11/08 06:19:59;;;;;;;;;;;20.20;54.80;;;;;;5015578;28;19996;-73
2022/11/08 06:22:25;;;;;;;;;;;20.20;54.80;;;;;;5011672;28;20373;-73
2022/11/08 06:24:50;;;;;;;;;;;20.20;54.90;;;;;;5030617;28;20404;-73
2022/11/08 06:27:16;;;;;;;;;;;20.20;54.80;;;;;;5046984;28;19948;-73
2022/11/08 06:29:41;;;;;;;;;;;20.20;54.80;;;;;;5032202;28;19935;-73
2022/11/08 06:32:08;;;;;;;;;;;20.30;54.80;;;;;;5027889;28;19920;-72
2022/11/08 06:34:33;;;;;;;;;;;20.30;54.80;;;;;;5032541;28;19924;-73
2022/11/08 06:36:59;;;;;;;;;;;20.30;54.70;;;;;;5027678;28;19925;-73
2022/11/08 06:39:24;;;;;;;;;;;20.30;54.60;;;;;;5032250;28;19921;-72
2022/11/08 06:41:50;;;;;;;;;;;20.30;54.60;;;;;;5046637;28;20399;-73
2022/11/08 06:44:15;;;;;;;;;;;20.30;54.50;;;;;;5025699;28;20291;-73
2022/11/08 06:46:40;;;;;;;;;;;20.30;54.50;;;;;;5032927;28;20383;-73
2022/11/08 06:49:06;;;;;;;;;;;20.40;54.50;;;;;;5031163;28;19921;-71
2022/11/08 06:51:31;;;;;;;;;;;20.30;54.40;;;;;;5044766;28;19923;-72
2022/11/08 06:53:57;;;;;;;;;;;20.30;54.40;;;;;;5042976;28;19919;-73
2022/11/08 06:56:23;;;;;;;;;;;20.30;54.50;;;;;;5024853;28;19959;-72
2022/11/08 06:58:50;;;;;;;;;;;20.30;54.50;;;;;;5046334;28;19917;-72
2022/11/08 07:01:17;;;;;;;;;;;20.30;54.50;;;;;;5046805;28;20323;-73
2022/11/08 07:03:42;;;;;;;;;;;20.30;54.40;;;;;;5030540;28;19974;-73
2022/11/08 07:06:08;;;;;;;;;;;20.30;54.40;;;;;;5030856;28;19920;-72
2022/11/08 07:08:34;;;;;;;;;;;20.30;54.40;;;;;;5030189;28;20023;-72
2022/11/08 07:10:59;;;;;;;;;;;20.30;54.40;;;;;;5045851;28;19913;-72
2022/11/08 07:13:25;;;;;;;;;;;20.30;54.40;;;;;;5029029;28;19913;-73
2022/11/08 07:15:50;;;;;;;;;;;20.30;54.40;;;;;;5044162;28;19956;-73
2022/11/08 07:18:16;;;;;;;;;;;20.30;54.30;;;;;;5046216;28;19924;-73
2022/11/08 07:20:41;;;;;;;;;;;20.30;54.30;;;;;;5030368;28;19912;-72
2022/11/08 07:23:10;;;;;;;;;;;20.30;54.40;;;;;;5043237;28;19975;-71
2022/11/08 07:25:36;;;;;;;;;;;20.30;54.40;;;;;;5013408;28;19917;-73
2022/11/08 07:28:02;;;;;;;;;;;20.30;54.40;;;;;;5013234;28;19948;-73
2022/11/08 07:30:27;;;;;;;;;;;20.30;54.50;;;;;;5046182;28;19912;-72
2022/11/08 07:32:53;;;;;;;;;;;20.30;54.40;;;;;;5029481;28;20456;-72
2022/11/08 07:35:19;;;;;;;;;;;20.30;54.40;;;;;;5046974;28;19971;-73
2022/11/08 07:37:44;;;;;;;;;;;20.20;54.30;;;;;;5028119;28;19924;-73
2022/11/08 07:40:10;;;;;;;;;;;20.20;54.40;;;;;;5029630;28;20296;-72
2022/11/08 07:42:36;;;;;;;;;;;20.20;54.40;;;;;;5012772;28;19982;-71
2022/11/08 07:45:02;;;;;;;;;;;20.20;54.40;;;;;;5029940;28;19912;-73
2022/11/08 07:47:27;;;;;;;;;;;20.20;54.40;;;;;;5029593;28;19921;-73
2022/11/08 07:49:52;;;;;;;;;;;20.20;54.40;;;;;;5046947;28;19913;-72
2022/11/08 07:52:18;;;;;;;;;;;20.20;54.50;;;;;;5046449;28;20013;-72
2022/11/08 07:54:43;;;;;;;;;;;20.30;54.50;;;;;;5026892;28;19936;-73
2022/11/08 07:57:09;;;;;;;;;;;20.20;54.50;;;;;;5019326;28;19947;-72
2022/11/08 07:59:34;;;;;;;;;;;20.30;54.70;;;;;;5044343;28;20481;-73
2022/11/08 08:02:00;;;;;;;;;;;20.20;54.60;;;;;;5027131;28;20011;-73
2022/11/08 08:04:27;;;;;;;;;;;20.20;54.70;;;;;;5041091;28;19952;-72
2022/11/08 08:06:52;;;;;;;;;;;20.20;54.80;;;;;;5040116;28;19925;-73
2022/11/08 08:09:18;;;;;;;;;;;20.20;54.80;;;;;;5045270;28;20281;-73
2022/11/08 08:11:43;;;;;;;;;;;20.20;54.70;;;;;;5025170;28;20407;-73
2022/11/08 08:14:09;;;;;;;;;;;20.20;54.70;;;;;;5046151;28;20269;-71
2022/11/08 08:16:35;;;;;;;;;;;20.30;54.80;;;;;;5045605;28;20284;-72
2022/11/08 08:19:01;;;;;;;;;;;20.30;54.70;;;;;;5043330;28;19923;-71
2022/11/08 08:21:26;;;;;;;;;;;20.30;54.80;;;;;;5032279;28;19916;-72
2022/11/08 08:23:52;;;;;;;;;;;20.30;54.90;;;;;;5052238;28;19912;-72
2022/11/08 08:26:17;;;;;;;;;;;20.40;54.80;;;;;;5015228;28;19925;-73
2022/11/08 08:28:43;;;;;;;;;;;20.70;54.40;;;;;;5027154;28;19928;-72
2022/11/08 08:31:08;;;;;;;;;;;21.10;53.80;;;;;;5041789;28;19924;-72
2022/11/08 08:33:34;;;;;;;;;;;21.40;53.10;;;;;;5031054;28;20523;-72
2022/11/08 08:36:02;;;;;;;;;;;21.60;52.50;;;;;;5043699;28;20361;-72
2022/11/08 08:38:28;;;;;;;;;;;21.90;52.20;;;;;;5046705;28;19928;-72
2022/11/08 08:40:53;;;;;;;;;;;22.00;51.90;;;;;;5039386;28;20281;-73
2022/11/08 08:43:19;;;;;;;;;;;22.10;51.70;;;;;;5048777;28;19920;-72
2022/11/08 08:45:44;;;;;;;;;;;22.10;51.50;;;;;;5050013;28;19925;-72
2022/11/08 08:48:09;;;;;;;;;;;22.20;51.50;;;;;;5050540;28;19917;-72
2022/11/08 08:50:35;;;;;;;;;;;22.30;51.30;;;;;;5046477;28;19999;-72
2022/11/08 08:53:01;;;;;;;;;;;22.30;51.20;;;;;;5033814;28;19912;-72
2022/11/08 08:55:27;;;;;;;;;;;22.30;51.10;;;;;;5031360;28;20004;-72
2022/11/08 08:57:52;;;;;;;;;;;22.30;51.30;;;;;;5029732;28;19999;-72
2022/11/08 09:00:17;;;;;;;;;;;22.20;51.30;;;;;;5027674;28;19923;-72
2022/11/08 09:02:43;;;;;;;;;;;22.30;51.40;;;;;;5049349;28;19955;-72
2022/11/08 09:05:09;;;;;;;;;;;22.20;51.30;;;;;;5048525;28;19917;-72
2022/11/08 09:07:34;;;;;;;;;;;22.20;51.40;;;;;;5034278;28;20015;-71
2022/11/08 09:10:00;;;;;;;;;;;22.20;51.40;;;;;;5048249;28;19963;-71
2022/11/08 09:12:25;;;;;;;;;;;22.30;51.40;;;;;;5032723;28;19920;-72
2022/11/08 09:14:51;;;;;;;;;;;22.20;51.50;;;;;;5049506;28;19983;-72
2022/11/08 09:17:16;;;;;;;;;;;22.20;52.20;;;;;;5043101;28;20373;-72
2022/11/08 09:19:42;;;;;;;;;;;22.10;51.60;;;;;;5033314;28;19962;-72
2022/11/08 09:22:07;;;;;;;;;;;22.10;51.70;;;;;;5014866;28;20004;-72
2022/11/08 09:24:33;;;;;;;;;;;22.10;51.70;;;;;;5050061;28;19996;-71
2022/11/08 09:27:02;;;;;;;;;;;22.20;51.70;;;;;;5047296;28;19963;-71
2022/11/08 09:29:31;;;;;;;;;;;22.10;51.60;;;;;;5031088;28;19924;-73
2022/11/08 09:31:56;;;;;;;;;;;22.10;51.80;;;;;;5051839;28;20285;-72
2022/11/08 09:34:21;;;;;;;;;;;22.10;51.80;;;;;;5050458;28;19935;-72
2022/11/08 09:36:47;;;;;;;;;;;22.10;51.90;;;;;;5042682;28;20323;-72
2022/11/08 09:39:15;;;;;;;;;;;22.10;51.80;;;;;;5011549;28;21227;-71
2022/11/08 09:41:59;;;;;;;;;;;22.20;51.80;;;;;;5030921;28;20380;-72
2022/11/08 09:44:34;;;;;;;;;;;22.30;51.60;;;;;;5040258;28;19917;-73
2022/11/08 09:47:04;;;;;;;;;;;22.50;51.30;;;;;;5040512;28;19929;-72
2022/11/08 09:49:31;;;;;;;;;;;22.50;51.00;;;;;;5032182;28;20280;-72
2022/11/08 09:51:57;;;;;;;;;;;22.50;51.20;;;;;;5029400;28;20285;-71
2022/11/08 09:54:23;;;;;;;;;;;22.40;51.30;;;;;;5030236;28;19924;-72
2022/11/08 09:56:50;;;;;;;;;;;22.30;51.30;;;;;;5045772;28;19916;-72
2022/11/08 09:59:23;;;;;;;;;;;22.30;51.40;;;;;;5031142;28;19913;-73
2022/11/08 10:01:48;;;;;;;;;;;22.30;51.40;;;;;;5047000;28;20003;-72
2022/11/08 10:04:14;;;;;;;;;;;22.40;51.30;;;;;;5023701;28;19968;-72
2022/11/08 10:06:39;;;;;;;;;;;22.50;51.30;;;;;;5024388;28;20010;-72
2022/11/08 10:09:43;;;;;;;;;;;22.50;51.20;;;;;;5045405;28;19913;-71
2022/11/08 10:12:24;;;;;;;;;;;22.50;51.20;;;;;;4911781;29;20387;-72
2022/11/08 10:14:50;;;;;;;;;;;22.40;51.20;;;;;;4930724;29;19918;-73
2022/11/08 10:17:30;;;;;;;;;;;22.50;51.30;;;;;;4995667;28;19917;-72
2022/11/08 10:19:59;;;;;;;;;;;22.60;51.20;;;;;;5049643;28;19913;-73
2022/11/08 10:22:28;;;;;;;;;;;22.70;51.00;;;;;;5047608;28;19921;-73
2022/11/08 10:24:55;;;;;;;;;;;22.70;50.80;;;;;;5029416;28;19936;-73
2022/11/08 10:27:24;;;;;;;;;;;22.80;50.80;;;;;;5023359;28;19917;-72
2022/11/08 10:29:50;;;;;;;;;;;22.80;50.70;;;;;;5032975;28;19913;-73
2022/11/08 10:32:20;;;;;;;;;;;22.90;50.60;;;;;;5034382;28;19946;-73
2022/11/08 10:34:54;;;;;;;;;;;22.90;50.40;;;;;;5050636;28;20431;-73
2022/11/08 10:37:20;;;;;;;;;;;23.00;50.40;;;;;;5051210;28;19948;-73
2022/11/08 10:40:07;;;;;;;;;;;23.10;50.40;;;;;;5036317;28;20029;-72
2022/11/08 10:42:36;;;;;;;;;;;23.10;50.40;;;;;;5032205;28;19917;-71
2022/11/08 10:45:01;;;;;;;;;;;23.20;50.20;;;;;;5050535;28;20292;-72
2022/11/08 10:47:28;;;;;;;;;;;23.20;50.20;;;;;;5034794;28;19920;-72
2022/11/08 10:49:53;;;;;;;;;;;23.20;50.10;;;;;;5053904;28;19960;-71
2022/11/08 10:52:49;;;;;;;;;;;23.20;50.20;;;;;;5052547;28;20001;-72
2022/11/08 10:55:25;;;;;;;;;;;23.20;50.20;;;;;;5051237;28;20019;-72
2022/11/08 10:57:50;;;;;;;;;;;23.20;50.20;;;;;;5051101;28;20394;-73
2022/11/08 11:00:15;;;;;;;;;;;23.30;50.20;;;;;;5034856;28;20000;-72
2022/11/08 11:02:41;;;;;;;;;;;23.20;50.10;;;;;;5053583;28;20357;-71
2022/11/08 11:05:13;;;;;;;;;;;23.20;50.20;;;;;;5053031;28;20284;-71
2022/11/08 11:07:38;;;;;;;;;;;23.10;50.20;;;;;;5051589;28;19924;-72
2022/11/08 11:10:20;;;;;;;;;;;23.10;50.30;;;;;;5036517;28;19917;-71
2022/11/08 11:13:11;;;;;;;;;;;23.10;50.30;;;;;;5025713;28;20318;-71
2022/11/08 11:15:37;;;;;;;;;;;23.10;50.40;;;;;;5041809;28;19920;-71
2022/11/08 11:18:03;;;;;;;;;;;23.20;50.50;;;;;;5043610;28;19961;-72
2022/11/08 11:20:30;;;;;;;;;;;23.10;50.50;;;;;;5046682;28;19917;-72
2022/11/08 11:22:55;;;;;;;;;;;23.00;50.50;;;;;;5052620;28;19917;-72
2022/11/08 11:25:21;;;;;;;;;;;23.00;50.60;;;;;;5036602;28;19927;-72
2022/11/08 11:27:48;;;;;;;;;;;23.00;51.40;;;;;;5033891;28;19974;-72
2022/11/08 11:30:20;;;;;;;;;;;23.00;50.90;;;;;;5050967;28;19923;-72
2022/11/08 11:32:53;;;;;;;;;;;23.00;50.90;;;;;;5045399;28;19913;-71
2022/11/08 11:35:18;;;;;;;;;;;23.00;50.90;;;;;;5031439;28;20455;-72
2022/11/08 11:37:44;;;;;;;;;;;22.90;50.90;;;;;;5035022;28;19912;-72
2022/11/08 11:40:25;;;;;;;;;;;23.00;51.00;;;;;;5048878;28;19920;-72
2022/11/08 11:42:54;;;;;;;;;;;23.00;50.90;;;;;;5033677;28;19917;-71
2022/11/08 11:45:38;;;;;;;;;;;23.00;50.70;;;;;;5030910;28;19939;-72
2022/11/08 11:48:05;;;;;;;;;;;23.10;50.70;;;;;;5029789;28;20027;-73
2022/11/08 11:50:30;;;;;;;;;;;23.10;50.70;;;;;;5033035;28;19912;-71
2022/11/08 11:52:56;;;;;;;;;;;23.10;50.80;;;;;;5031485;28;19921;-73
2022/11/08 11:55:23;;;;;;;;;;;23.10;50.80;;;;;;5032646;28;19931;-72
2022/11/08 11:57:54;;;;;;;;;;;23.10;50.70;;;;;;5053577;28;19916;-73
2022/11/08 12:00:20;;;;;;;;;;;23.20;50.60;;;;;;5052365;28;19909;-72
2022/11/08 12:02:53;;;;;;;;;;;23.30;50.50;;;;;;5049901;28;20058;-72
2022/11/08 12:05:31;;;;;;;;;;;23.30;50.40;;;;;;5042393;28;20393;-72
2022/11/08 12:08:03;;;;;;;;;;;23.30;50.30;;;;;;5024579;28;19925;-72
2022/11/08 12:10:32;;;;;;;;;;;23.30;50.20;;;;;;5034490;28;19920;-73
2022/11/08 12:13:13;;;;;;;;;;;23.30;50.30;;;;;;5048670;28;19963;-72
2022/11/08 12:15:43;;;;;;;;;;;23.30;50.40;;;;;;5050063;28;20035;-72
2022/11/08 12:18:21;;;;;;;;;;;23.20;50.50;;;;;;5044598;28;19972;-72
2022/11/08 12:20:52;;;;;;;;;;;23.30;50.60;;;;;;5029411;28;20353;-73
2022/11/08 12:23:18;;;;;;;;;;;23.30;50.70;;;;;;5034044;28;19916;-72
2022/11/08 12:25:50;;;;;;;;;;;23.30;50.80;;;;;;5051594;28;20379;-73
2022/11/08 12:28:33;;;;;;;;;;;23.30;50.80;;;;;;5012106;28;19924;-74
2022/11/08 12:31:25;;;;;;;;;;;23.20;50.70;;;;;;5048536;28;20035;-73
2022/11/08 12:33:54;;;;;;;;;;;23.20;50.60;;;;;;5045338;28;19913;-74
2022/11/08 12:36:26;;;;;;;;;;;23.30;50.50;;;;;;5032830;28;19956;-74
2022/11/08 12:38:57;;;;;;;;;;;23.30;50.50;;;;;;5030987;28;19912;-74
2022/11/08 12:41:33;;;;;;;;;;;23.30;50.50;;;;;;5028020;28;19917;-72
2022/11/08 12:44:17;;;;;;;;;;;23.30;50.60;;;;;;5023474;28;20342;-74
2022/11/08 12:46:49;;;;;;;;;;;23.30;50.60;;;;;;5041389;28;20374;-73
2022/11/08 12:49:20;;;;;;;;;;;23.30;50.60;;;;;;5028674;28;20276;-74
2022/11/08 12:51:51;;;;;;;;;;;23.30;50.60;;;;;;5025468;28;19913;-73
2022/11/08 12:54:31;;;;;;;;;;;23.30;50.60;;;;;;5028273;28;19916;-74
2022/11/08 12:56:58;;;;;;;;;;;23.30;50.60;;;;;;5030888;28;19920;-72
2022/11/08 12:59:23;;;;;;;;;;;23.20;50.60;;;;;;5042860;28;19913;-73
2022/11/08 13:01:49;;;;;;;;;;;23.20;50.60;;;;;;5037860;28;19974;-73
2022/11/08 13:04:27;;;;;;;;;;;23.20;50.60;;;;;;5046748;28;22520;-74
2022/11/08 13:07:02;;;;;;;;;;;23.20;50.60;;;;;;5027443;28;19925;-73
2022/11/08 13:09:31;;;;;;;;;;;23.20;50.60;;;;;;5021147;28;19920;-74
2022/11/08 13:12:09;;;;;;;;;;;23.20;50.60;;;;;;5047018;28;20360;-73
2022/11/08 13:14:35;;;;;;;;;;;23.20;50.60;;;;;;5041426;28;20388;-73
2022/11/08 13:17:12;;;;;;;;;;;23.20;50.60;;;;;;5049335;28;19923;-74
2022/11/08 13:19:46;;;;;;;;;;;23.20;50.60;;;;;;5046093;28;19938;-71
2022/11/08 13:22:30;;;;;;;;;;;23.20;50.60;;;;;;5044243;28;20364;-72
2022/11/08 13:24:59;;;;;;;;;;;23.20;50.50;;;;;;5045161;28;19916;-72
2022/11/08 13:27:34;;;;;;;;;;;23.30;50.50;;;;;;5028544;28;19975;-72
2022/11/08 13:30:20;;;;;;;;;;;23.40;51.20;;;;;;5028970;28;19920;-72
2022/11/08 13:32:46;;;;;;;;;;;23.40;50.40;;;;;;5036121;28;19917;-72
2022/11/08 13:35:12;;;;;;;;;;;23.40;50.30;;;;;;5043059;28;19975;-72
2022/11/08 13:37:37;;;;;;;;;;;23.50;50.30;;;;;;5046026;28;19956;-72
2022/11/08 13:40:15;;;;;;;;;;;23.60;50.30;;;;;;5046516;28;19963;-72
2022/11/08 13:42:47;;;;;;;;;;;23.70;50.20;;;;;;5049766;28;20356;-72
2022/11/08 13:45:15;;;;;;;;;;;23.70;50.20;;;;;;5047702;28;19916;-72
2022/11/08 13:47:41;;;;;;;;;;;23.70;50.40;;;;;;5028438;28;19921;-71
2022/11/08 13:50:24;;;;;;;;;;;23.70;50.30;;;;;;5043706;28;19925;-73
2022/11/08 13:53:09;;;;;;;;;;;23.70;50.90;;;;;;5048006;28;19920;-72
2022/11/08 13:55:40;;;;;;;;;;;23.80;50.30;;;;;;5027084;28;19995;-71
2022/11/08 13:58:26;;;;;;;;;;;23.70;50.20;;;;;;5045071;28;19967;-72
2022/11/08 14:00:52;;;;;;;;;;;23.70;50.30;;;;;;5044116;28;19913;-72
2022/11/08 14:03:32;;;;;;;;;;;23.70;50.30;;;;;;5031423;28;19924;-72
2022/11/08 14:06:00;;;;;;;;;;;23.70;50.30;;;;;;5046167;28;19960;-72
2022/11/08 14:08:27;;;;;;;;;;;23.70;50.30;;;;;;5049762;28;19985;-72
2022/11/08 14:10:56;;;;;;;;;;;23.80;50.40;;;;;;5045978;28;19999;-72
2022/11/08 14:13:23;;;;;;;;;;;23.80;50.40;;;;;;5046140;28;20324;-72
2022/11/08 14:15:50;;;;;;;;;;;23.80;50.40;;;;;;5050045;28;20321;-72
2022/11/08 14:18:29;;;;;;;;;;;23.70;50.40;;;;;;5031300;28;19921;-72
2022/11/08 14:20:55;;;;;;;;;;;23.70;50.40;;;;;;5030336;28;19921;-72
2022/11/08 14:23:27;;;;;;;;;;;23.70;50.40;;;;;;5052263;28;19917;-71
2022/11/08 14:25:56;;;;;;;;;;;23.80;50.50;;;;;;5044808;28;19962;-72
2022/11/08 14:28:23;;;;;;;;;;;23.70;50.40;;;;;;5032778;28;19932;-72
2022/11/08 14:30:48;;;;;;;;;;;23.70;50.40;;;;;;5031317;28;19920;-72
2022/11/08 14:33:14;;;;;;;;;;;23.70;50.30;;;;;;5050855;28;19913;-72
2022/11/08 14:35:39;;;;;;;;;;;23.70;50.30;;;;;;5042746;28;20039;-72
2022/11/08 14:38:12;;;;;;;;;;;23.70;50.30;;;;;;5034720;28;19917;-71
2022/11/08 14:40:38;;;;;;;;;;;23.70;50.30;;;;;;5045039;28;19912;-72